Cordell, Oklahoma
Current Conditions -  °F | °C
As of 12:53 PM on Sunday 23 Nov 2014 (Local Time) from KCSM Reporting Station
Overcast Overcast  
Wind Chill: 56°   Ceiling: 2700
Heat Index: 56°   Visibility: 10mi
Dew Point: 44°   Wind: 36mph
Humidity: 64%   Direction: 330°NNW
Pressure: 29.42"   Gusts: 49mph
Location:  35.29°N, 98.99°W
Report Text: KCSM 231853Z AUTO 33031G43KT 10SM BKN027 OVC033 13/07 A2942 RMK AO2 PK WND 33043/1853 SLP954 T01330067 $
Loading
Personal Weather Stations






























Interactive Weather Map New forecast layout! Learn more

10-Day Weather Forecast

Advertisements
Track Severe Weather on mobile